Decoded Metar for K2W6 (CAPT DUKE RGNL in MD, USA) (IATA:2W6) | Meteo·Mobile Aviation Weather
aviador You're here:

K2W6 Decoded Metar

CAPT DUKE RGNL in MD, USA
Report Time2018-10-15 19:03:00
UTC Time2018-10-15 19:17:46
Flight Rules vfr VFR
Wind230° at 08 kt
W.Rank230° ranks 4
Current wind is above 230° avg. (6.7)
Visibility9999 m
Phenomena:N/A
Clouds:Scattered 075 Hf
Broken 085 Hf
Overcast 110 Hf
Expected CloudBase > 2,000 ft AGL from Temp-Dew spread
Ceiling8,500 ft
Temp23°C (ISA +8)
Dew Point18°C (74% RH)
QNH1017 hPa
Density Alt1,247 ft
Elevation144 ft
Report Wrong Elevation
Raw Report
K2W6 151903Z AUTO 23008KT 10SM SCT075 BKN085 OVC110 23/18 A3004
RMK AO1=

Extra information for K2W6:More info

Metar Taf Metar & Taf Last 4 Metars F.Rules Stats Wind Profile Meteogram Temp Stats Airport Information Weather charts Add Link Nearby VenuesMetar ALERT Operation Metar Decoded Social comments

AIRNAV info for K2W6